Time;durP1;ratioP1;P1;durP2;ratioP2;P2;SDS_P1;SDS_P2;PMS_P1;PMS_P2;Temp;Humidity;BMP_temperature;BMP_pressure;BME280_temperature;BME280_humidity;BME280_pressure;Samples;Min_cycle;Max_cycle;Signal;HPM_P1;HPM_P2
2021/03/03 00:00:38;;;;;;;;;;;;;;;6.51;51.74;97918.90;1783451;79;20214;-57
2021/03/03 00:03:06;;;;;;;;;;;;;;;6.48;51.80;97915.99;1778558;80;20273;-56
2021/03/03 00:05:33;;;;;;;;;;;;;;;6.46;51.87;97920.33;1766790;80;20218;-57
2021/03/03 00:08:01;;;;;;;;;;;;;;;6.43;51.96;97921.72;1775231;80;21032;-56
2021/03/03 00:10:28;;;;;;;;;;;;;;;6.41;52.13;97924.80;1768029;80;20218;-56
2021/03/03 00:12:56;;;;;;;;;;;;;;;6.38;52.20;97922.31;1765709;80;20217;-57
2021/03/03 00:15:23;;;;;;;;;;;;;;;6.34;52.33;97926.73;1777445;80;20229;-56
2021/03/03 00:17:50;;;;;;;;;;;;;;;6.30;52.39;97927.74;1742666;82;20253;-57
2021/03/03 00:20:18;;;;;;;;;;;;;;;6.28;52.73;97921.77;1775729;80;21378;-56
2021/03/03 00:22:45;;;;;;;;;;;;;;;6.30;52.77;97922.59;1774398;80;20268;-56
2021/03/03 00:25:13;;;;;;;;;;;;;;;6.30;52.57;97912.27;1788572;80;20327;-56
2021/03/03 00:27:42;;;;;;;;;;;;;;;6.25;52.58;97917.57;1747766;80;20236;-56
2021/03/03 00:30:13;;;;;;;;;;;;;;;6.17;52.27;97918.27;1760350;80;20218;-56
2021/03/03 00:32:40;;;;;;;;;;;;;;;6.09;51.99;97917.66;1787986;80;21202;-56
2021/03/03 00:35:09;;;;;;;;;;;;;;;5.92;52.10;97916.88;1786439;80;20210;-58
2021/03/03 00:37:37;;;;;;;;;;;;;;;5.79;52.34;97919.39;1754257;80;20217;-56
2021/03/03 00:40:05;;;;;;;;;;;;;;;5.63;52.63;97921.14;1772584;80;20226;-56
2021/03/03 00:42:33;;;;;;;;;;;;;;;5.53;52.96;97921.02;1767064;80;20490;-56
2021/03/03 00:45:02;;;;;;;;;;;;;;;5.43;53.20;97920.44;1741441;80;21393;-56
2021/03/03 00:47:29;;;;;;;;;;;;;;;5.37;53.42;97918.48;1776893;80;20490;-58
2021/03/03 00:49:58;;;;;;;;;;;;;;;5.30;53.58;97916.08;1756189;80;20240;-56
2021/03/03 00:52:26;;;;;;;;;;;;;;;5.26;53.93;97910.63;1770739;80;20216;-56
2021/03/03 00:54:54;;;;;;;;;;;;;;;5.24;53.96;97909.81;1750679;80;20244;-59
2021/03/03 00:57:21;;;;;;;;;;;;;;;5.23;54.18;97908.56;1760209;80;22083;-57
2021/03/03 00:59:49;;;;;;;;;;;;;;;5.20;54.50;97903.50;1758633;80;20892;-56
2021/03/03 01:02:17;;;;;;;;;;;;;;;5.20;54.67;97903.50;1786442;80;20477;-57
2021/03/03 01:04:47;;;;;;;;;;;;;;;5.20;54.78;97899.64;1785909;80;20234;-57
2021/03/03 01:07:15;;;;;;;;;;;;;;;5.17;54.88;97892.87;1737156;80;20244;-58
2021/03/03 01:09:42;;;;;;;;;;;;;;;5.16;55.03;97891.16;1768804;80;21421;-58
2021/03/03 01:12:10;;;;;;;;;;;;;;;5.18;55.05;97893.70;1779686;80;20223;-57
2021/03/03 01:14:38;;;;;;;;;;;;;;;5.18;55.06;97891.13;1791172;80;20509;-57
2021/03/03 01:17:06;;;;;;;;;;;;;;;5.14;55.06;97892.95;1783267;80;20266;-57
2021/03/03 01:19:35;;;;;;;;;;;;;;;5.04;55.14;97893.64;1781982;79;20294;-57
2021/03/03 01:22:03;;;;;;;;;;;;;;;4.97;55.28;97895.54;1785891;80;21328;-57
2021/03/03 01:24:30;;;;;;;;;;;;;;;4.93;55.27;97889.23;1791100;80;20215;-57
2021/03/03 01:26:57;;;;;;;;;;;;;;;4.85;55.28;97889.45;1756756;80;20214;-57
2021/03/03 01:29:24;;;;;;;;;;;;;;;4.72;55.41;97892.79;1775286;80;20213;-57
2021/03/03 01:31:52;;;;;;;;;;;;;;;4.61;55.66;97887.08;1767841;80;20245;-57
2021/03/03 01:34:19;;;;;;;;;;;;;;;4.51;55.82;97886.92;1787171;79;21370;-58
2021/03/03 01:36:47;;;;;;;;;;;;;;;4.42;56.02;97886.69;1796858;79;20217;-58
2021/03/03 01:39:15;;;;;;;;;;;;;;;4.34;56.13;97883.05;1774276;79;20230;-57
2021/03/03 01:41:42;;;;;;;;;;;;;;;4.27;56.28;97886.62;1792687;80;20218;-57
2021/03/03 01:44:09;;;;;;;;;;;;;;;4.18;56.46;97886.42;1799459;79;20210;-57
2021/03/03 01:46:38;;;;;;;;;;;;;;;4.10;56.66;97882.36;1781131;79;21138;-58
2021/03/03 01:49:05;;;;;;;;;;;;;;;4.05;56.70;97879.89;1767292;80;20252;-57
2021/03/03 01:51:34;;;;;;;;;;;;;;;4.06;56.68;97885.41;1782386;79;20506;-58
2021/03/03 01:54:01;;;;;;;;;;;;;;;4.00;56.54;97885.13;1796995;79;20923;-58
2021/03/03 01:56:29;;;;;;;;;;;;;;;3.90;56.36;97884.95;1797211;79;20225;-58
2021/03/03 01:58:56;;;;;;;;;;;;;;;3.79;56.52;97881.33;1777423;79;21209;-58
2021/03/03 02:01:24;;;;;;;;;;;;;;;3.70;56.54;97878.98;1780497;78;20612;-58
2021/03/03 02:03:51;;;;;;;;;;;;;;;3.58;56.75;97888.23;1779665;79;20225;-57
2021/03/03 02:06:25;;;;;;;;;;;;;;;3.47;56.90;97892.30;1783050;79;21042;-57
2021/03/03 02:08:57;;;;;;;;;;;;;;;3.33;57.21;97890.03;1761158;79;20225;-57
2021/03/03 02:11:28;;;;;;;;;;;;;;;3.17;57.55;97892.50;1789606;79;21845;-57
2021/03/03 02:13:59;;;;;;;;;;;;;;;3.00;57.89;97888.55;1795437;79;20274;-57
2021/03/03 02:16:26;;;;;;;;;;;;;;;2.83;58.38;97888.88;1795223;79;20284;-57
2021/03/03 02:18:55;;;;;;;;;;;;;;;2.67;58.60;97887.02;1778863;79;20216;-57
2021/03/03 02:21:45;;;;;;;;;;;;;;;2.52;58.91;97881.73;1781785;79;20221;-57
2021/03/03 02:24:26;;;;;;;;;;;;;;;2.38;59.32;97879.84;1799462;79;21278;-57
2021/03/03 02:26:53;;;;;;;;;;;;;;;2.26;59.66;97881.34;1799598;79;20216;-57
2021/03/03 02:29:27;;;;;;;;;;;;;;;2.21;59.73;97883.98;1758296;79;20281;-57
2021/03/03 02:31:55;;;;;;;;;;;;;;;2.16;60.06;97880.20;1771631;79;20226;-57
2021/03/03 02:34:25;;;;;;;;;;;;;;;2.15;60.17;97884.07;1785878;79;21643;-57
2021/03/03 02:36:53;;;;;;;;;;;;;;;2.06;60.48;97881.67;1791051;80;21254;-57
2021/03/03 02:39:22;;;;;;;;;;;;;;;2.00;60.60;97884.72;1780279;80;20338;-57
2021/03/03 02:41:50;;;;;;;;;;;;;;;1.97;60.75;97883.92;1762841;80;20509;-57
2021/03/03 02:44:17;;;;;;;;;;;;;;;1.94;60.81;97878.44;1776553;80;20213;-57
2021/03/03 02:46:45;;;;;;;;;;;;;;;1.93;60.89;97882.30;1775648;81;20476;-57
2021/03/03 02:49:16;;;;;;;;;;;;;;;1.92;60.85;97879.31;1765518;80;22380;-57
2021/03/03 02:51:43;;;;;;;;;;;;;;;1.91;60.96;97881.45;1777982;80;20218;-57
2021/03/03 02:54:13;;;;;;;;;;;;;;;1.99;60.86;97884.33;1775966;80;20229;-58
2021/03/03 02:56:40;;;;;;;;;;;;;;;2.07;60.63;97879.06;1786795;80;20991;-57
2021/03/03 02:59:32;;;;;;;;;;;;;;;2.09;60.51;97876.06;1779043;80;20217;-58
2021/03/03 03:02:02;;;;;;;;;;;;;;;2.07;60.48;97880.34;1791101;80;21219;-57
2021/03/03 03:04:48;;;;;;;;;;;;;;;1.95;60.74;97878.83;1788238;80;20238;-58
2021/03/03 03:07:36;;;;;;;;;;;;;;;1.86;60.95;97876.84;1767610;80;20492;-58
2021/03/03 03:10:22;;;;;;;;;;;;;;;1.82;61.31;97879.44;1740399;81;20240;-56
2021/03/03 03:13:08;;;;;;;;;;;;;;;1.80;61.34;97882.46;1779798;80;20249;-56
2021/03/03 03:15:53;;;;;;;;;;;;;;;1.79;61.41;97881.20;1790274;80;21278;-56
2021/03/03 03:18:27;;;;;;;;;;;;;;;1.76;61.64;97883.80;1787193;80;20211;-56
2021/03/03 03:20:54;;;;;;;;;;;;;;;1.72;61.77;97874.05;1748962;80;20216;-56
2021/03/03 03:23:21;;;;;;;;;;;;;;;1.67;61.86;97883.52;1772468;80;22339;-57
2021/03/03 03:25:50;;;;;;;;;;;;;;;1.66;61.98;97883.09;1785239;80;20242;-56
2021/03/03 03:28:18;;;;;;;;;;;;;;;1.63;62.05;97881.44;1785702;80;21207;-56
2021/03/03 03:30:45;;;;;;;;;;;;;;;1.64;62.06;97878.02;1769276;80;20492;-56
2021/03/03 03:33:13;;;;;;;;;;;;;;;1.67;61.97;97875.00;1773723;80;20254;-57
2021/03/03 03:35:40;;;;;;;;;;;;;;;1.65;62.02;97880.97;1763079;80;20214;-56
2021/03/03 03:38:08;;;;;;;;;;;;;;;1.70;62.08;97875.80;1771812;80;20218;-58
2021/03/03 03:40:35;;;;;;;;;;;;;;;1.75;62.04;97875.73;1775215;81;21203;-57
2021/03/03 03:43:02;;;;;;;;;;;;;;;1.72;62.01;97872.77;1784525;80;20242;-56
2021/03/03 03:45:30;;;;;;;;;;;;;;;1.71;62.10;97870.23;1792274;79;20227;-58
2021/03/03 03:47:57;;;;;;;;;;;;;;;1.68;62.08;97871.14;1788249;80;20504;-58
2021/03/03 03:50:26;;;;;;;;;;;;;;;1.67;62.11;97871.16;1778359;80;20293;-57
2021/03/03 03:52:54;;;;;;;;;;;;;;;1.67;62.15;97882.67;1760165;80;21979;-58
2021/03/03 03:55:32;;;;;;;;;;;;;;;1.68;62.10;97874.98;1779337;80;20973;-57
2021/03/03 03:58:00;;;;;;;;;;;;;;;1.65;62.22;97871.19;1773807;80;20493;-58
2021/03/03 04:00:28;;;;;;;;;;;;;;;1.62;62.28;97874.61;1759210;80;22218;-56
2021/03/03 04:02:56;;;;;;;;;;;;;;;1.56;62.40;97881.13;1764997;80;20273;-57
2021/03/03 04:05:24;;;;;;;;;;;;;;;1.55;62.43;97874.30;1764771;80;21211;-55
2021/03/03 04:07:51;;;;;;;;;;;;;;;1.50;62.63;97876.49;1787333;80;20235;-56
2021/03/03 04:10:25;;;;;;;;;;;;;;;1.40;62.71;97880.47;1783700;80;20285;-60
2021/03/03 04:12:52;;;;;;;;;;;;;;;1.36;63.28;97882.64;1764971;80;20564;-56
2021/03/03 04:15:21;;;;;;;;;;;;;;;1.41;63.18;97885.14;1787586;80;20290;-56
2021/03/03 04:17:50;;;;;;;;;;;;;;;1.42;63.05;97872.78;1736200;82;21213;-56
2021/03/03 04:20:20;;;;;;;;;;;;;;;1.40;62.99;97873.25;1742264;81;20516;-56
2021/03/03 04:22:48;;;;;;;;;;;;;;;1.39;63.01;97871.54;1748070;81;20220;-56
2021/03/03 04:25:18;;;;;;;;;;;;;;;1.38;63.02;97874.55;1753737;81;20307;-56
2021/03/03 04:27:49;;;;;;;;;;;;;;;1.45;62.97;97879.14;1742466;81;20237;-57
2021/03/03 04:30:20;;;;;;;;;;;;;;;1.40;62.88;97874.52;1745047;82;21380;-56
2021/03/03 04:32:49;;;;;;;;;;;;;;;1.43;62.85;97874.05;1740763;82;20279;-56
2021/03/03 04:35:16;;;;;;;;;;;;;;;1.52;62.70;97874.34;1737153;82;20255;-57
2021/03/03 04:37:43;;;;;;;;;;;;;;;1.56;62.54;97864.91;1742978;82;20653;-56
2021/03/03 04:40:12;;;;;;;;;;;;;;;1.57;62.36;97871.28;1716577;83;20406;-56
2021/03/03 04:42:39;;;;;;;;;;;;;;;1.55;62.35;97872.19;1737661;82;22232;-55
2021/03/03 04:45:09;;;;;;;;;;;;;;;1.53;62.37;97869.65;1739448;82;20679;-56
2021/03/03 04:47:37;;;;;;;;;;;;;;;1.50;62.36;97864.57;1735570;82;20481;-56
2021/03/03 04:50:06;;;;;;;;;;;;;;;1.50;62.48;97871.38;1739159;82;20226;-56
2021/03/03 04:52:34;;;;;;;;;;;;;;;1.49;62.44;97870.98;1729582;82;20235;-56
2021/03/03 04:55:04;;;;;;;;;;;;;;;1.50;62.48;97872.25;1712900;82;21221;-57
2021/03/03 04:57:31;;;;;;;;;;;;;;;1.54;62.42;97870.48;1736368;82;20505;-58
2021/03/03 04:59:59;;;;;;;;;;;;;;;1.62;62.26;97864.38;1740941;81;20222;-58
2021/03/03 05:02:29;;;;;;;;;;;;;;;1.66;61.95;97869.02;1772453;81;20219;-57
2021/03/03 05:04:57;;;;;;;;;;;;;;;1.67;61.86;97870.72;1774803;81;20238;-56
2021/03/03 05:07:25;;;;;;;;;;;;;;;1.63;61.91;97872.48;1774018;81;23542;-56
2021/03/03 05:09:53;;;;;;;;;;;;;;;1.67;61.97;97869.44;1775130;81;20218;-57
2021/03/03 05:12:20;;;;;;;;;;;;;;;1.73;61.67;97869.36;1769728;81;20292;-57
2021/03/03 05:14:48;;;;;;;;;;;;;;;1.82;61.57;97872.20;1769876;81;20218;-54
2021/03/03 05:17:15;;;;;;;;;;;;;;;1.97;61.12;97874.55;1768539;81;20214;-53
2021/03/03 05:19:44;;;;;;;;;;;;;;;2.10;60.73;97873.06;1773275;80;21297;-55
2021/03/03 05:22:11;;;;;;;;;;;;;;;2.32;60.40;97873.54;1775230;81;20545;-55
2021/03/03 05:24:39;;;;;;;;;;;;;;;2.66;59.58;97875.07;1775507;81;20210;-54
2021/03/03 05:27:06;;;;;;;;;;;;;;;2.99;58.44;97874.03;1774410;81;20954;-55
2021/03/03 05:29:34;;;;;;;;;;;;;;;3.34;57.63;97876.34;1782232;78;20202;-55
2021/03/03 05:32:01;;;;;;;;;;;;;;;3.68;56.60;97870.04;1766377;81;21634;-54
2021/03/03 05:34:29;;;;;;;;;;;;;;;4.02;55.77;97878.68;1725014;82;20479;-54
2021/03/03 05:36:59;;;;;;;;;;;;;;;4.50;54.68;97873.66;1756020;80;20490;-55
2021/03/03 05:39:26;;;;;;;;;;;;;;;4.94;53.61;97871.19;1790965;80;20752;-54
2021/03/03 05:41:53;;;;;;;;;;;;;;;5.46;52.19;97871.87;1791004;80;20210;-54
2021/03/03 05:44:21;;;;;;;;;;;;;;;5.93;51.30;97874.73;1746175;81;21383;-54
2021/03/03 05:46:49;;;;;;;;;;;;;;;6.43;49.57;97870.16;1791166;80;20510;-54
2021/03/03 05:49:17;;;;;;;;;;;;;;;6.79;48.45;97873.24;1760688;80;20221;-55
2021/03/03 05:51:44;;;;;;;;;;;;;;;7.09;47.50;97870.47;1791065;80;20230;-55
2021/03/03 05:54:12;;;;;;;;;;;;;;;7.49;46.51;97862.53;1791154;80;20226;-55
2021/03/03 05:56:41;;;;;;;;;;;;;;;7.82;45.83;97863.89;1774441;80;21199;-55
2021/03/03 05:59:11;;;;;;;;;;;;;;;8.23;44.56;97863.98;1781160;80;20517;-55
2021/03/03 06:01:39;;;;;;;;;;;;;;;8.71;44.06;97864.63;1773559;80;20491;-56
2021/03/03 06:04:09;;;;;;;;;;;;;;;9.24;42.59;97856.70;1732592;81;20221;-54
2021/03/03 06:06:41;;;;;;;;;;;;;;;9.63;42.01;97856.63;1758346;81;20221;-54
2021/03/03 06:09:10;;;;;;;;;;;;;;;9.94;40.46;97862.51;1772633;81;22129;-55
2021/03/03 06:11:38;;;;;;;;;;;;;;;10.00;40.13;97866.58;1776397;80;20240;-54
2021/03/03 06:14:07;;;;;;;;;;;;;;;10.09;39.97;97860.10;1785493;80;20222;-54
2021/03/03 06:16:34;;;;;;;;;;;;;;;10.31;39.76;97864.63;1790424;80;20214;-54
2021/03/03 06:19:02;;;;;;;;;;;;;;;10.91;39.16;97872.96;1768741;80;20217;-55
2021/03/03 06:21:31;;;;;;;;;;;;;;;11.55;38.31;97872.16;1775318;80;22548;-55
2021/03/03 06:24:02;;;;;;;;;;;;;;;12.21;37.10;97866.39;1791140;80;20658;-55
2021/03/03 06:26:29;;;;;;;;;;;;;;;12.77;35.76;97869.72;1789787;80;20230;-55
2021/03/03 06:28:57;;;;;;;;;;;;;;;13.30;34.68;97862.20;1775737;80;20233;-55
2021/03/03 06:31:30;;;;;;;;;;;;;;;13.53;33.82;97864.72;1775635;81;20238;-55
2021/03/03 06:34:19;;;;;;;;;;;;;;;13.84;33.26;97866.72;1775596;80;21540;-55
2021/03/03 06:36:58;;;;;;;;;;;;;;;14.10;32.21;97865.05;1745848;81;20222;-56
2021/03/03 06:39:30;;;;;;;;;;;;;;;14.38;32.46;97868.48;1780533;80;20607;-55
2021/03/03 06:42:00;;;;;;;;;;;;;;;15.14;31.69;97872.95;1761418;81;20216;-55
2021/03/03 06:44:51;;;;;;;;;;;;;;;15.71;29.88;97862.95;1774684;81;20218;-55
2021/03/03 06:47:19;;;;;;;;;;;;;;;15.34;29.69;97862.42;1785067;80;21054;-55
2021/03/03 06:49:49;;;;;;;;;;;;;;;15.14;30.07;97866.42;1778420;80;20225;-54
2021/03/03 06:52:16;;;;;;;;;;;;;;;15.13;30.48;97868.69;1781714;80;20289;-54
2021/03/03 06:54:45;;;;;;;;;;;;;;;15.52;30.31;97874.69;1790520;80;20242;-54
2021/03/03 06:57:13;;;;;;;;;;;;;;;16.28;29.36;97870.18;1789944;80;20214;-54
2021/03/03 06:59:44;;;;;;;;;;;;;;;17.04;28.60;97873.27;1776021;79;21195;-54
2021/03/03 07:02:13;;;;;;;;;;;;;;;18.00;27.12;97867.14;1786113;80;20221;-54
2021/03/03 07:04:45;;;;;;;;;;;;;;;18.68;26.36;97869.48;1783526;80;20223;-54
2021/03/03 07:07:16;;;;;;;;;;;;;;;19.05;25.10;97867.25;1775593;81;20470;-56
2021/03/03 07:09:47;;;;;;;;;;;;;;;19.30;25.16;97867.30;1757189;80;20222;-56
2021/03/03 07:12:17;;;;;;;;;;;;;;;19.93;24.78;97861.48;1780299;80;21215;-55
2021/03/03 07:14:47;;;;;;;;;;;;;;;20.74;24.23;97865.19;1789281;80;20218;-55
2021/03/03 07:17:17;;;;;;;;;;;;;;;21.66;23.36;97868.48;1769013;81;20221;-55
2021/03/03 07:19:48;;;;;;;;;;;;;;;22.51;22.41;97867.36;1784604;80;20238;-55
2021/03/03 07:22:23;;;;;;;;;;;;;;;23.24;21.71;97870.20;1789699;80;20682;-55
2021/03/03 07:24:51;;;;;;;;;;;;;;;23.82;21.17;97861.55;1766408;80;21209;-54
2021/03/03 07:27:20;;;;;;;;;;;;;;;24.15;20.54;97861.62;1790986;80;20716;-55
2021/03/03 07:29:48;;;;;;;;;;;;;;;24.27;20.36;97863.96;1791035;80;20514;-54
2021/03/03 07:32:17;;;;;;;;;;;;;;;24.38;20.15;97864.46;1786207;80;20297;-54
2021/03/03 07:34:51;;;;;;;;;;;;;;;24.58;20.12;97864.98;1769378;80;20218;-56
2021/03/03 07:37:21;;;;;;;;;;;;;;;24.86;19.93;97863.83;1766240;80;21467;-55
2021/03/03 07:39:52;;;;;;;;;;;;;;;25.09;19.95;97867.42;1757223;80;20249;-54
2021/03/03 07:42:22;;;;;;;;;;;;;;;25.30;19.66;97865.58;1756484;80;20226;-54
2021/03/03 07:44:49;;;;;;;;;;;;;;;25.49;19.42;97863.52;1738883;82;20919;-55
2021/03/03 07:47:17;;;;;;;;;;;;;;;25.64;19.22;97867.13;1732140;82;20254;-55
2021/03/03 07:49:47;;;;;;;;;;;;;;;25.91;19.10;97861.00;1735459;82;21439;-55
2021/03/03 07:52:14;;;;;;;;;;;;;;;26.17;18.82;97864.70;1769534;80;20218;-54
2021/03/03 07:54:42;;;;;;;;;;;;;;;26.44;18.62;97865.17;1778654;80;20242;-54
2021/03/03 07:57:09;;;;;;;;;;;;;;;26.72;18.45;97868.13;1772790;80;20278;-55
2021/03/03 07:59:43;;;;;;;;;;;;;;;26.91;18.12;97859.30;1781559;80;20226;-55
2021/03/03 08:02:11;;;;;;;;;;;;;;;26.93;17.96;97862.11;1780647;80;21252;-55
2021/03/03 08:04:40;;;;;;;;;;;;;;;26.92;17.87;97860.96;1762301;81;20590;-55
2021/03/03 08:07:18;;;;;;;;;;;;;;;27.02;18.15;97856.70;1768757;80;20231;-55
2021/03/03 08:10:23;;;;;;;;;;;;;;;27.12;18.06;97862.10;1777355;80;20214;-55
2021/03/03 08:13:02;;;;;;;;;;;;;;;27.28;18.06;97860.26;1759856;79;20238;-55
2021/03/03 08:15:38;;;;;;;;;;;;;;;27.46;17.94;97863.91;1776167;80;21366;-56
2021/03/03 08:18:20;;;;;;;;;;;;;;;27.67;17.58;97855.98;1757360;81;20540;-55
2021/03/03 08:20:53;;;;;;;;;;;;;;;27.80;17.35;97849.17;1766584;80;20720;-55
2021/03/03 08:23:38;;;;;;;;;;;;;;;27.87;17.36;97856.21;1747003;80;20790;-55
2021/03/03 08:26:13;;;;;;;;;;;;;;;28.22;17.26;97850.25;1776794;80;20456;-55
2021/03/03 08:28:47;;;;;;;;;;;;;;;28.59;16.89;97853.20;1780497;79;39842;-55
2021/03/03 08:31:20;;;;;;;;;;;;;;;28.67;16.80;97850.06;1780868;80;20216;-55
2021/03/03 08:33:52;;;;;;;;;;;;;;;28.60;16.77;97844.66;1777899;80;20234;-54
2021/03/03 08:36:27;;;;;;;;;;;;;;;28.53;16.91;97847.77;1777602;80;20305;-54
2021/03/03 08:38:58;;;;;;;;;;;;;;;28.61;16.84;97848.48;1788513;80;20213;-55
2021/03/03 08:41:33;;;;;;;;;;;;;;;28.69;16.97;97836.84;1789966;78;21246;-55
2021/03/03 08:44:10;;;;;;;;;;;;;;;28.91;16.80;97843.47;1789233;78;20217;-55
2021/03/03 08:46:45;;;;;;;;;;;;;;;29.04;16.64;97832.05;1777011;80;20230;-55
2021/03/03 08:49:16;;;;;;;;;;;;;;;29.16;16.51;97833.14;1782392;80;20218;-55
2021/03/03 08:51:45;;;;;;;;;;;;;;;29.26;16.47;97827.47;1782973;80;20261;-54
2021/03/03 08:54:14;;;;;;;;;;;;;;;29.38;16.21;97829.91;1786207;78;22282;-54
2021/03/03 08:56:52;;;;;;;;;;;;;;;29.55;16.05;97831.20;1790517;78;20770;-55
2021/03/03 08:59:40;;;;;;;;;;;;;;;29.61;16.00;97824.77;1788380;78;20222;-54
2021/03/03 09:02:15;;;;;;;;;;;;;;;29.65;16.08;97833.50;1759691;81;20239;-54
2021/03/03 09:04:45;;;;;;;;;;;;;;;29.64;16.04;97826.53;1767736;81;20237;-54
2021/03/03 09:07:20;;;;;;;;;;;;;;;29.66;15.78;97820.98;1785680;78;21204;-54
2021/03/03 09:09:54;;;;;;;;;;;;;;;29.59;15.86;97822.78;1790692;80;20218;-54
2021/03/03 09:12:31;;;;;;;;;;;;;;;29.60;15.64;97819.09;1776766;78;20206;-54
2021/03/03 09:15:01;;;;;;;;;;;;;;;29.64;15.59;97814.98;1778604;80;20826;-54
2021/03/03 09:17:30;;;;;;;;;;;;;;;29.67;15.54;97807.90;1791088;80;20226;-54
2021/03/03 09:19:59;;;;;;;;;;;;;;;29.75;15.35;97810.39;1784336;80;22005;-54
2021/03/03 09:22:29;;;;;;;;;;;;;;;29.80;15.18;97811.16;1791173;80;20230;-54
2021/03/03 09:25:19;;;;;;;;;;;;;;;29.84;15.19;97806.55;1782659;78;20206;-59
2021/03/03 09:27:57;;;;;;;;;;;;;;;29.90;15.08;97809.77;1776691;80;22214;-54
2021/03/03 09:30:26;;;;;;;;;;;;;;;29.99;14.98;97802.89;1759466;80;20234;-54
2021/03/03 09:32:53;;;;;;;;;;;;;;;29.73;15.26;97801.75;1766888;80;21194;-55
2021/03/03 09:35:30;;;;;;;;;;;;;;;29.50;15.40;97800.75;1760368;80;20240;-57
2021/03/03 09:37:58;;;;;;;;;;;;;;;29.36;15.44;97799.89;1768771;81;20212;-55
2021/03/03 09:40:32;;;;;;;;;;;;;;;29.16;15.23;97796.57;1780363;78;20911;-54
2021/03/03 09:43:00;;;;;;;;;;;;;;;29.26;15.61;97795.40;1785095;79;20236;-55
2021/03/03 09:45:29;;;;;;;;;;;;;;;29.38;15.46;97792.48;1795714;79;21197;-55
2021/03/03 09:47:57;;;;;;;;;;;;;;;29.41;15.38;97793.92;1800292;79;20269;-54
2021/03/03 09:50:27;;;;;;;;;;;;;;;29.45;15.24;97787.16;1798328;79;20217;-55
2021/03/03 09:52:55;;;;;;;;;;;;;;;29.46;15.20;97787.45;1783396;78;20225;-55
2021/03/03 09:55:27;;;;;;;;;;;;;;;29.39;15.49;97788.77;1798197;79;20210;-55
2021/03/03 09:57:55;;;;;;;;;;;;;;;29.43;15.34;97790.55;1798402;78;22241;-55
2021/03/03 10:00:24;;;;;;;;;;;;;;;29.54;15.25;97782.78;1796846;78;20226;-55
2021/03/03 10:02:57;;;;;;;;;;;;;;;29.66;14.89;97782.20;1792811;80;20214;-54
2021/03/03 10:05:29;;;;;;;;;;;;;;;29.72;14.87;97781.38;1798888;79;20218;-55
2021/03/03 10:08:01;;;;;;;;;;;;;;;29.85;14.70;97772.10;1768522;78;20273;-55
2021/03/03 10:10:37;;;;;;;;;;;;;;;30.01;14.52;97771.39;1795040;79;21195;-59
2021/03/03 10:13:06;;;;;;;;;;;;;;;29.98;14.70;97770.46;1797668;78;20239;-55
2021/03/03 10:15:36;;;;;;;;;;;;;;;29.93;14.91;97771.59;1781684;79;20214;-55
2021/03/03 10:18:08;;;;;;;;;;;;;;;29.72;14.88;97768.84;1800384;79;20233;-55
2021/03/03 10:20:40;;;;;;;;;;;;;;;29.65;14.89;97769.32;1770368;79;20267;-55
2021/03/03 10:23:10;;;;;;;;;;;;;;;29.72;14.83;97762.16;1768849;81;21195;-55
2021/03/03 10:25:40;;;;;;;;;;;;;;;29.63;14.58;97763.36;1769146;79;20828;-58
2021/03/03 10:28:17;;;;;;;;;;;;;;;29.46;14.66;97759.39;1792765;78;20218;-55
2021/03/03 10:30:46;;;;;;;;;;;;;;;29.28;14.70;97752.76;1800349;79;20927;-55
2021/03/03 10:33:32;;;;;;;;;;;;;;;29.28;15.20;97746.08;1794866;79;20478;-55
2021/03/03 10:36:03;;;;;;;;;;;;;;;29.13;15.54;97749.36;1770235;79;21215;-55
2021/03/03 10:38:35;;;;;;;;;;;;;;;29.16;15.49;97742.28;1798741;79;20238;-55
2021/03/03 10:41:04;;;;;;;;;;;;;;;29.36;15.37;97743.75;1792980;79;20210;-55
2021/03/03 10:43:31;;;;;;;;;;;;;;;29.37;15.30;97737.36;1799017;78;20234;-55
2021/03/03 10:46:20;;;;;;;;;;;;;;;29.29;15.35;97735.68;1795538;79;20222;-55
2021/03/03 10:48:46;;;;;;;;;;;;;;;29.29;15.15;97730.86;1792994;79;21212;-55
2021/03/03 10:51:15;;;;;;;;;;;;;;;29.34;15.47;97725.23;1779838;79;20514;-55
2021/03/03 10:53:54;;;;;;;;;;;;;;;29.23;15.17;97723.14;1796708;79;20214;-55
2021/03/03 10:56:27;;;;;;;;;;;;;;;29.23;15.25;97724.97;1792785;79;20223;-55
2021/03/03 10:58:58;;;;;;;;;;;;;;;29.24;15.39;97715.94;1796603;79;20217;-54
2021/03/03 11:01:46;;;;;;;;;;;;;;;28.99;15.50;97710.55;1794117;78;20583;-55
2021/03/03 11:04:14;;;;;;;;;;;;;;;28.74;15.77;97712.91;1792751;79;20627;-54
2021/03/03 11:06:41;;;;;;;;;;;;;;;28.73;15.57;97699.23;1796391;79;20241;-55
2021/03/03 11:09:13;;;;;;;;;;;;;;;28.61;15.73;97707.49;1773388;81;20248;-56
2021/03/03 11:11:54;;;;;;;;;;;;;;;28.43;15.83;97696.77;1798951;79;20253;-55
2021/03/03 11:14:22;;;;;;;;;;;;;;;28.19;15.98;97695.38;1794505;78;21201;-55
2021/03/03 11:16:51;;;;;;;;;;;;;;;28.18;15.92;97686.23;1799912;79;20491;-55
2021/03/03 11:19:19;;;;;;;;;;;;;;;27.83;16.59;97691.44;1795572;79;20225;-55
2021/03/03 11:21:47;;;;;;;;;;;;;;;27.70;16.63;97686.31;1795102;78;20214;-55
2021/03/03 11:24:15;;;;;;;;;;;;;;;27.60;16.63;97686.30;1775122;79;20500;-55
2021/03/03 11:26:42;;;;;;;;;;;;;;;27.51;16.52;97680.27;1788156;79;21654;-55
2021/03/03 11:29:10;;;;;;;;;;;;;;;27.45;16.49;97677.88;1769639;79;20518;-54
2021/03/03 11:31:38;;;;;;;;;;;;;;;27.55;16.48;97680.23;1792829;79;20216;-54
2021/03/03 11:34:06;;;;;;;;;;;;;;;27.49;16.70;97672.47;1784238;79;20387;-56
2021/03/03 11:36:33;;;;;;;;;;;;;;;27.38;16.68;97673.48;1776765;80;20226;-54
2021/03/03 11:39:03;;;;;;;;;;;;;;;27.31;16.51;97659.57;1787925;80;21334;-55
2021/03/03 11:41:30;;;;;;;;;;;;;;;27.09;16.39;97657.36;1788001;80;20227;-53
2021/03/03 11:43:57;;;;;;;;;;;;;;;26.75;16.81;97657.45;1783330;80;20226;-54
2021/03/03 11:46:25;;;;;;;;;;;;;;;26.57;16.98;97660.98;1793294;80;20343;-55
2021/03/03 11:48:53;;;;;;;;;;;;;;;26.53;16.79;97653.87;1789416;80;20477;-55
2021/03/03 11:51:21;;;;;;;;;;;;;;;26.35;16.74;97644.92;1784778;80;20523;-55
2021/03/03 11:53:50;;;;;;;;;;;;;;;26.11;17.11;97651.31;1777998;78;20218;-57
2021/03/03 11:56:17;;;;;;;;;;;;;;;25.92;17.46;97648.61;1763843;81;20227;-55
2021/03/03 11:58:45;;;;;;;;;;;;;;;25.90;17.29;97646.16;1780249;78;20246;-55
2021/03/03 12:01:13;;;;;;;;;;;;;;;26.01;17.29;97642.77;1787749;79;20503;-55
2021/03/03 12:03:41;;;;;;;;;;;;;;;25.94;17.17;97639.98;1783457;80;21489;-55
2021/03/03 12:06:09;;;;;;;;;;;;;;;25.79;17.34;97634.62;1772064;80;20237;-55
2021/03/03 12:08:38;;;;;;;;;;;;;;;25.76;17.28;97631.00;1783234;80;20226;-55
2021/03/03 12:11:06;;;;;;;;;;;;;;;25.78;17.45;97623.66;1790096;78;20277;-55
2021/03/03 12:13:34;;;;;;;;;;;;;;;25.77;17.32;97627.83;1788435;80;20229;-55
2021/03/03 12:16:02;;;;;;;;;;;;;;;25.73;17.33;97623.37;1791528;80;21055;-55
2021/03/03 12:18:31;;;;;;;;;;;;;;;25.66;17.23;97621.13;1774696;80;20225;-56
2021/03/03 12:21:00;;;;;;;;;;;;;;;25.49;17.36;97622.58;1786237;80;20234;-55
2021/03/03 12:23:28;;;;;;;;;;;;;;;25.53;17.52;97621.20;1793848;80;20498;-55
2021/03/03 12:25:56;;;;;;;;;;;;;;;25.76;17.22;97612.88;1770351;80;20218;-55
2021/03/03 12:28:23;;;;;;;;;;;;;;;25.86;17.35;97611.62;1793773;80;21259;-55
2021/03/03 12:30:50;;;;;;;;;;;;;;;25.64;17.40;97612.48;1793975;80;20326;-55
2021/03/03 12:33:18;;;;;;;;;;;;;;;25.38;17.68;97612.84;1765634;80;20218;-55
2021/03/03 12:35:48;;;;;;;;;;;;;;;25.30;17.76;97599.14;1770693;81;20228;-55
2021/03/03 12:38:16;;;;;;;;;;;;;;;25.23;17.85;97592.84;1768472;81;20291;-54
2021/03/03 12:40:43;;;;;;;;;;;;;;;25.17;17.88;97598.37;1784931;80;22585;-55
2021/03/03 12:43:11;;;;;;;;;;;;;;;24.92;18.12;97591.88;1794609;80;20219;-55
2021/03/03 12:45:38;;;;;;;;;;;;;;;24.67;17.93;97586.37;1779135;80;20237;-55
2021/03/03 12:48:06;;;;;;;;;;;;;;;24.39;18.50;97580.15;1770803;81;20271;-55
2021/03/03 12:50:34;;;;;;;;;;;;;;;24.22;18.85;97581.53;1767711;80;20522;-55
2021/03/03 12:53:02;;;;;;;;;;;;;;;24.03;18.69;97573.48;1763859;81;21162;-55
2021/03/03 12:55:29;;;;;;;;;;;;;;;23.79;19.21;97567.69;1786069;80;20220;-55
2021/03/03 12:57:58;;;;;;;;;;;;;;;23.53;19.33;97570.53;1794670;80;20478;-55
2021/03/03 13:00:26;;;;;;;;;;;;;;;23.40;19.43;97564.91;1776805;80;20517;-55
2021/03/03 13:02:53;;;;;;;;;;;;;;;23.18;19.69;97567.22;1795360;80;20238;-55
2021/03/03 13:05:21;;;;;;;;;;;;;;;22.87;19.80;97562.51;1787845;80;21205;-55